sensor_id;sensor_type;location;lat;lon;timestamp;temperature;humidity
81630;DHT22;71039;49.500;10.418;2024-01-25T00:01:45;9.40;60.90
81630;DHT22;71039;49.500;10.418;2024-01-25T00:04:11;9.40;61.00
81630;DHT22;71039;49.500;10.418;2024-01-25T00:06:36;9.40;61.10
81630;DHT22;71039;49.500;10.418;2024-01-25T00:09:02;9.40;61.10
81630;DHT22;71039;49.500;10.418;2024-01-25T00:11:27;9.40;61.20
81630;DHT22;71039;49.500;10.418;2024-01-25T00:13:53;9.40;61.30
81630;DHT22;71039;49.500;10.418;2024-01-25T00:16:18;9.40;61.40
81630;DHT22;71039;49.500;10.418;2024-01-25T00:18:44;9.40;61.40
81630;DHT22;71039;49.500;10.418;2024-01-25T00:21:09;9.40;61.40
81630;DHT22;71039;49.500;10.418;2024-01-25T00:23:35;9.40;61.50
81630;DHT22;71039;49.500;10.418;2024-01-25T00:26:01;9.40;61.50
81630;DHT22;71039;49.500;10.418;2024-01-25T00:28:26;9.50;61.50
81630;DHT22;71039;49.500;10.418;2024-01-25T00:30:52;9.50;61.60
81630;DHT22;71039;49.500;10.418;2024-01-25T00:33:17;9.50;61.60
81630;DHT22;71039;49.500;10.418;2024-01-25T00:35:43;9.60;61.60
81630;DHT22;71039;49.500;10.418;2024-01-25T00:38:09;9.60;61.50
81630;DHT22;71039;49.500;10.418;2024-01-25T00:40:35;9.60;61.50
81630;DHT22;71039;49.500;10.418;2024-01-25T00:43:01;9.60;61.40
81630;DHT22;71039;49.500;10.418;2024-01-25T00:45:27;9.60;61.40
81630;DHT22;71039;49.500;10.418;2024-01-25T00:47:52;9.60;61.30
81630;DHT22;71039;49.500;10.418;2024-01-25T00:50:19;9.70;61.20
81630;DHT22;71039;49.500;10.418;2024-01-25T00:52:45;9.70;61.20
81630;DHT22;71039;49.500;10.418;2024-01-25T00:55:11;9.70;61.10
81630;DHT22;71039;49.500;10.418;2024-01-25T00:57:37;9.70;61.00
81630;DHT22;71039;49.500;10.418;2024-01-25T01:00:03;9.70;60.90
81630;DHT22;71039;49.500;10.418;2024-01-25T01:02:29;9.70;60.90
81630;DHT22;71039;49.500;10.418;2024-01-25T01:04:59;9.70;60.90
81630;DHT22;71039;49.500;10.418;2024-01-25T01:07:25;9.60;60.90
81630;DHT22;71039;49.500;10.418;2024-01-25T01:09:51;9.60;61.00
81630;DHT22;71039;49.500;10.418;2024-01-25T01:12:16;9.60;61.10
81630;DHT22;71039;49.500;10.418;2024-01-25T01:14:42;9.60;61.10
81630;DHT22;71039;49.500;10.418;2024-01-25T01:17:08;9.60;61.20
81630;DHT22;71039;49.500;10.418;2024-01-25T01:19:33;9.60;61.30
81630;DHT22;71039;49.500;10.418;2024-01-25T01:21:59;9.50;61.30
81630;DHT22;71039;49.500;10.418;2024-01-25T01:24:24;9.60;61.30
81630;DHT22;71039;49.500;10.418;2024-01-25T01:26:50;9.60;61.40
81630;DHT22;71039;49.500;10.418;2024-01-25T01:29:16;9.60;61.40
81630;DHT22;71039;49.500;10.418;2024-01-25T01:31:41;9.60;61.40
81630;DHT22;71039;49.500;10.418;2024-01-25T01:34:07;9.60;61.40
81630;DHT22;71039;49.500;10.418;2024-01-25T01:36:32;9.60;61.30
81630;DHT22;71039;49.500;10.418;2024-01-25T01:38:58;9.60;61.20
81630;DHT22;71039;49.500;10.418;2024-01-25T01:41:23;9.60;61.20
81630;DHT22;71039;49.500;10.418;2024-01-25T01:43:52;9.60;61.10
81630;DHT22;71039;49.500;10.418;2024-01-25T01:46:38;9.60;61.10
81630;DHT22;71039;49.500;10.418;2024-01-25T01:49:04;9.60;61.10
81630;DHT22;71039;49.500;10.418;2024-01-25T01:51:31;9.60;61.00
81630;DHT22;71039;49.500;10.418;2024-01-25T01:53:57;9.60;61.10
81630;DHT22;71039;49.500;10.418;2024-01-25T01:56:24;9.50;61.10
81630;DHT22;71039;49.500;10.418;2024-01-25T01:58:52;9.50;61.10
81630;DHT22;71039;49.500;10.418;2024-01-25T02:01:19;9.50;61.10
81630;DHT22;71039;49.500;10.418;2024-01-25T02:03:46;9.50;61.10
81630;DHT22;71039;49.500;10.418;2024-01-25T02:06:11;9.50;61.10
81630;DHT22;71039;49.500;10.418;2024-01-25T02:08:37;9.50;61.10
81630;DHT22;71039;49.500;10.418;2024-01-25T02:11:02;9.50;61.10
81630;DHT22;71039;49.500;10.418;2024-01-25T02:13:28;9.50;61.20
81630;DHT22;71039;49.500;10.418;2024-01-25T02:15:54;9.50;61.20
81630;DHT22;71039;49.500;10.418;2024-01-25T02:18:19;9.50;61.20
81630;DHT22;71039;49.500;10.418;2024-01-25T02:20:46;9.50;61.20
81630;DHT22;71039;49.500;10.418;2024-01-25T02:23:11;9.50;61.20
81630;DHT22;71039;49.500;10.418;2024-01-25T02:25:37;9.50;61.20
81630;DHT22;71039;49.500;10.418;2024-01-25T02:28:02;9.40;61.20
81630;DHT22;71039;49.500;10.418;2024-01-25T02:30:28;9.40;61.20
81630;DHT22;71039;49.500;10.418;2024-01-25T02:32:54;9.40;61.30
81630;DHT22;71039;49.500;10.418;2024-01-25T02:35:19;9.40;61.30
81630;DHT22;71039;49.500;10.418;2024-01-25T02:37:45;9.40;61.30
81630;DHT22;71039;49.500;10.418;2024-01-25T02:40:10;9.40;61.30
81630;DHT22;71039;49.500;10.418;2024-01-25T02:42:36;9.40;61.30
81630;DHT22;71039;49.500;10.418;2024-01-25T02:45:02;9.40;61.20
81630;DHT22;71039;49.500;10.418;2024-01-25T02:47:27;9.40;61.20
81630;DHT22;71039;49.500;10.418;2024-01-25T02:49:53;9.40;61.20
81630;DHT22;71039;49.500;10.418;2024-01-25T02:52:18;9.40;61.10
81630;DHT22;71039;49.500;10.418;2024-01-25T02:54:44;9.40;61.00
81630;DHT22;71039;49.500;10.418;2024-01-25T02:57:10;9.40;60.90
81630;DHT22;71039;49.500;10.418;2024-01-25T02:59:35;9.40;60.80
81630;DHT22;71039;49.500;10.418;2024-01-25T03:02:01;9.40;60.80
81630;DHT22;71039;49.500;10.418;2024-01-25T03:04:26;9.40;60.80
81630;DHT22;71039;49.500;10.418;2024-01-25T03:06:52;9.30;60.70
81630;DHT22;71039;49.500;10.418;2024-01-25T03:09:17;9.30;60.80
81630;DHT22;71039;49.500;10.418;2024-01-25T03:11:43;9.20;60.80
81630;DHT22;71039;49.500;10.418;2024-01-25T03:14:08;9.20;60.90
81630;DHT22;71039;49.500;10.418;2024-01-25T03:16:34;9.20;61.00
81630;DHT22;71039;49.500;10.418;2024-01-25T03:18:59;9.20;61.00
81630;DHT22;71039;49.500;10.418;2024-01-25T03:21:25;9.10;61.10
81630;DHT22;71039;49.500;10.418;2024-01-25T03:23:51;9.10;61.10
81630;DHT22;71039;49.500;10.418;2024-01-25T03:26:16;9.10;61.10
81630;DHT22;71039;49.500;10.418;2024-01-25T03:28:42;9.10;61.10
81630;DHT22;71039;49.500;10.418;2024-01-25T03:31:07;9.00;61.10
81630;DHT22;71039;49.500;10.418;2024-01-25T03:33:33;9.00;61.00
81630;DHT22;71039;49.500;10.418;2024-01-25T03:36:05;9.00;61.00
81630;DHT22;71039;49.500;10.418;2024-01-25T03:38:31;9.00;61.10
81630;DHT22;71039;49.500;10.418;2024-01-25T03:40:57;9.00;61.20
81630;DHT22;71039;49.500;10.418;2024-01-25T03:43:22;9.00;61.20
81630;DHT22;71039;49.500;10.418;2024-01-25T03:45:48;8.90;61.30
81630;DHT22;71039;49.500;10.418;2024-01-25T03:48:14;8.90;61.20
81630;DHT22;71039;49.500;10.418;2024-01-25T03:50:39;8.90;61.20
81630;DHT22;71039;49.500;10.418;2024-01-25T03:53:05;8.90;61.30
81630;DHT22;71039;49.500;10.418;2024-01-25T03:55:30;8.90;61.40
81630;DHT22;71039;49.500;10.418;2024-01-25T03:57:56;8.90;61.50
81630;DHT22;71039;49.500;10.418;2024-01-25T04:00:21;8.90;61.50
81630;DHT22;71039;49.500;10.418;2024-01-25T04:02:47;8.90;61.40
81630;DHT22;71039;49.500;10.418;2024-01-25T04:05:12;8.90;61.40
81630;DHT22;71039;49.500;10.418;2024-01-25T04:07:38;8.90;61.40
81630;DHT22;71039;49.500;10.418;2024-01-25T04:10:03;8.80;61.50
81630;DHT22;71039;49.500;10.418;2024-01-25T04:12:29;8.80;61.60
81630;DHT22;71039;49.500;10.418;2024-01-25T04:14:55;8.80;61.60
81630;DHT22;71039;49.500;10.418;2024-01-25T04:17:20;8.80;61.60
81630;DHT22;71039;49.500;10.418;2024-01-25T04:19:46;8.80;61.70
81630;DHT22;71039;49.500;10.418;2024-01-25T04:22:11;8.80;61.70
81630;DHT22;71039;49.500;10.418;2024-01-25T04:24:37;8.80;61.60
81630;DHT22;71039;49.500;10.418;2024-01-25T04:27:03;8.80;61.60
81630;DHT22;71039;49.500;10.418;2024-01-25T04:29:28;8.80;61.60
81630;DHT22;71039;49.500;10.418;2024-01-25T04:31:54;8.80;61.60
81630;DHT22;71039;49.500;10.418;2024-01-25T04:34:19;8.80;61.80
81630;DHT22;71039;49.500;10.418;2024-01-25T04:36:45;8.80;61.80
81630;DHT22;71039;49.500;10.418;2024-01-25T04:39:10;8.70;61.80
81630;DHT22;71039;49.500;10.418;2024-01-25T04:41:36;8.70;61.80
81630;DHT22;71039;49.500;10.418;2024-01-25T04:44:02;8.70;61.80
81630;DHT22;71039;49.500;10.418;2024-01-25T04:46:27;8.60;61.70
81630;DHT22;71039;49.500;10.418;2024-01-25T04:48:53;8.60;61.70
81630;DHT22;71039;49.500;10.418;2024-01-25T04:51:19;8.60;61.70
81630;DHT22;71039;49.500;10.418;2024-01-25T04:53:44;8.60;61.70
81630;DHT22;71039;49.500;10.418;2024-01-25T04:56:10;8.60;61.70
81630;DHT22;71039;49.500;10.418;2024-01-25T04:58:35;8.60;61.70
81630;DHT22;71039;49.500;10.418;2024-01-25T05:01:01;8.60;61.70
81630;DHT22;71039;49.500;10.418;2024-01-25T05:03:26;8.60;61.70
81630;DHT22;71039;49.500;10.418;2024-01-25T05:05:52;8.50;61.90
81630;DHT22;71039;49.500;10.418;2024-01-25T05:08:18;8.50;62.10
81630;DHT22;71039;49.500;10.418;2024-01-25T05:10:43;8.50;62.20
81630;DHT22;71039;49.500;10.418;2024-01-25T05:13:09;8.50;62.20
81630;DHT22;71039;49.500;10.418;2024-01-25T05:15:35;8.50;62.20
81630;DHT22;71039;49.500;10.418;2024-01-25T05:18:01;8.50;62.10
81630;DHT22;71039;49.500;10.418;2024-01-25T05:20:27;8.50;62.00
81630;DHT22;71039;49.500;10.418;2024-01-25T05:22:52;8.40;62.00
81630;DHT22;71039;49.500;10.418;2024-01-25T05:25:18;8.40;61.90
81630;DHT22;71039;49.500;10.418;2024-01-25T05:27:43;8.40;61.80
81630;DHT22;71039;49.500;10.418;2024-01-25T05:30:09;8.40;61.80
81630;DHT22;71039;49.500;10.418;2024-01-25T05:32:35;8.30;61.80
81630;DHT22;71039;49.500;10.418;2024-01-25T05:35:00;8.30;61.80
81630;DHT22;71039;49.500;10.418;2024-01-25T05:37:26;8.30;61.90
81630;DHT22;71039;49.500;10.418;2024-01-25T05:39:51;8.30;62.10
81630;DHT22;71039;49.500;10.418;2024-01-25T05:42:17;8.20;62.40
81630;DHT22;71039;49.500;10.418;2024-01-25T05:44:42;8.20;62.60
81630;DHT22;71039;49.500;10.418;2024-01-25T05:47:08;8.20;62.80
81630;DHT22;71039;49.500;10.418;2024-01-25T05:49:33;8.20;62.90
81630;DHT22;71039;49.500;10.418;2024-01-25T05:51:59;8.20;63.00
81630;DHT22;71039;49.500;10.418;2024-01-25T05:54:24;8.20;63.00
81630;DHT22;71039;49.500;10.418;2024-01-25T05:56:50;8.20;63.10
81630;DHT22;71039;49.500;10.418;2024-01-25T05:59:15;8.30;63.10
81630;DHT22;71039;49.500;10.418;2024-01-25T06:01:41;8.30;63.10
81630;DHT22;71039;49.500;10.418;2024-01-25T06:04:06;8.30;63.20
81630;DHT22;71039;49.500;10.418;2024-01-25T06:06:32;8.30;63.20
81630;DHT22;71039;49.500;10.418;2024-01-25T06:08:57;8.40;63.20
81630;DHT22;71039;49.500;10.418;2024-01-25T06:11:23;8.40;63.20
81630;DHT22;71039;49.500;10.418;2024-01-25T06:13:48;8.40;62.90
81630;DHT22;71039;49.500;10.418;2024-01-25T06:16:14;8.40;62.70
81630;DHT22;71039;49.500;10.418;2024-01-25T06:18:39;8.40;62.50
81630;DHT22;71039;49.500;10.418;2024-01-25T06:21:05;8.40;62.30
81630;DHT22;71039;49.500;10.418;2024-01-25T06:23:30;8.40;62.20
81630;DHT22;71039;49.500;10.418;2024-01-25T06:25:56;8.30;62.20
81630;DHT22;71039;49.500;10.418;2024-01-25T06:28:21;8.30;62.10
81630;DHT22;71039;49.500;10.418;2024-01-25T06:30:47;8.30;62.10
81630;DHT22;71039;49.500;10.418;2024-01-25T06:33:12;8.20;62.00
81630;DHT22;71039;49.500;10.418;2024-01-25T06:35:38;8.20;61.90
81630;DHT22;71039;49.500;10.418;2024-01-25T06:38:04;8.10;62.00
81630;DHT22;71039;49.500;10.418;2024-01-25T06:40:29;8.10;62.00
81630;DHT22;71039;49.500;10.418;2024-01-25T06:42:55;8.00;62.10
81630;DHT22;71039;49.500;10.418;2024-01-25T06:45:20;8.00;62.10
81630;DHT22;71039;49.500;10.418;2024-01-25T06:47:46;8.00;62.20
81630;DHT22;71039;49.500;10.418;2024-01-25T06:50:11;7.90;62.20
81630;DHT22;71039;49.500;10.418;2024-01-25T06:52:37;7.80;62.30
81630;DHT22;71039;49.500;10.418;2024-01-25T06:55:02;7.80;62.30
81630;DHT22;71039;49.500;10.418;2024-01-25T06:57:28;7.80;62.30
81630;DHT22;71039;49.500;10.418;2024-01-25T06:59:53;7.70;62.40
81630;DHT22;71039;49.500;10.418;2024-01-25T07:02:19;7.60;62.40
81630;DHT22;71039;49.500;10.418;2024-01-25T07:04:44;7.60;62.50
81630;DHT22;71039;49.500;10.418;2024-01-25T07:07:10;7.50;62.50
81630;DHT22;71039;49.500;10.418;2024-01-25T07:09:35;7.50;62.50
81630;DHT22;71039;49.500;10.418;2024-01-25T07:12:01;7.50;62.60
81630;DHT22;71039;49.500;10.418;2024-01-25T07:14:26;7.50;62.60
81630;DHT22;71039;49.500;10.418;2024-01-25T07:16:52;7.40;62.70
81630;DHT22;71039;49.500;10.418;2024-01-25T07:19:17;7.40;62.70
81630;DHT22;71039;49.500;10.418;2024-01-25T07:21:43;7.30;62.80
81630;DHT22;71039;49.500;10.418;2024-01-25T07:24:08;7.30;62.80
81630;DHT22;71039;49.500;10.418;2024-01-25T07:26:34;7.20;62.90
81630;DHT22;71039;49.500;10.418;2024-01-25T07:28:59;7.20;63.00
81630;DHT22;71039;49.500;10.418;2024-01-25T07:31:26;7.20;63.20
81630;DHT22;71039;49.500;10.418;2024-01-25T07:33:52;7.20;63.20
81630;DHT22;71039;49.500;10.418;2024-01-25T07:36:18;7.10;63.30
81630;DHT22;71039;49.500;10.418;2024-01-25T07:38:44;7.10;63.40
81630;DHT22;71039;49.500;10.418;2024-01-25T07:41:10;7.00;63.50
81630;DHT22;71039;49.500;10.418;2024-01-25T07:43:35;7.00;63.70
81630;DHT22;71039;49.500;10.418;2024-01-25T07:46:01;7.00;63.70
81630;DHT22;71039;49.500;10.418;2024-01-25T07:48:26;7.00;63.90
81630;DHT22;71039;49.500;10.418;2024-01-25T07:50:52;7.00;63.90
81630;DHT22;71039;49.500;10.418;2024-01-25T07:53:17;7.00;64.00
81630;DHT22;71039;49.500;10.418;2024-01-25T07:55:43;7.00;64.10
81630;DHT22;71039;49.500;10.418;2024-01-25T07:58:08;7.00;64.10
81630;DHT22;71039;49.500;10.418;2024-01-25T08:00:34;7.10;64.20
81630;DHT22;71039;49.500;10.418;2024-01-25T08:02:59;7.10;64.30
81630;DHT22;71039;49.500;10.418;2024-01-25T08:05:25;7.20;64.50
81630;DHT22;71039;49.500;10.418;2024-01-25T08:07:50;7.20;64.80
81630;DHT22;71039;49.500;10.418;2024-01-25T08:10:16;7.20;65.30
81630;DHT22;71039;49.500;10.418;2024-01-25T08:12:41;7.30;65.50
81630;DHT22;71039;49.500;10.418;2024-01-25T08:15:07;7.40;65.50
81630;DHT22;71039;49.500;10.418;2024-01-25T08:17:33;7.50;65.70
81630;DHT22;71039;49.500;10.418;2024-01-25T08:19:59;7.60;65.90
81630;DHT22;71039;49.500;10.418;2024-01-25T08:22:24;7.80;66.50
81630;DHT22;71039;49.500;10.418;2024-01-25T08:24:50;7.90;67.20
81630;DHT22;71039;49.500;10.418;2024-01-25T08:27:15;8.10;67.60
81630;DHT22;71039;49.500;10.418;2024-01-25T08:29:41;8.30;67.60
81630;DHT22;71039;49.500;10.418;2024-01-25T08:32:06;8.50;67.20
81630;DHT22;71039;49.500;10.418;2024-01-25T08:34:32;8.60;66.70
81630;DHT22;71039;49.500;10.418;2024-01-25T08:36:57;8.90;66.10
81630;DHT22;71039;49.500;10.418;2024-01-25T08:39:23;9.10;65.90
81630;DHT22;71039;49.500;10.418;2024-01-25T08:41:48;9.20;66.30
81630;DHT22;71039;49.500;10.418;2024-01-25T08:44:14;9.40;66.30
81630;DHT22;71039;49.500;10.418;2024-01-25T08:46:39;9.60;65.80
81630;DHT22;71039;49.500;10.418;2024-01-25T08:49:05;9.70;65.30
81630;DHT22;71039;49.500;10.418;2024-01-25T08:51:31;9.90;65.10
81630;DHT22;71039;49.500;10.418;2024-01-25T08:53:56;10.00;64.80
81630;DHT22;71039;49.500;10.418;2024-01-25T08:56:22;10.20;64.70
81630;DHT22;71039;49.500;10.418;2024-01-25T08:58:47;10.30;64.60
81630;DHT22;71039;49.500;10.418;2024-01-25T09:01:13;10.40;64.80
81630;DHT22;71039;49.500;10.418;2024-01-25T09:03:38;10.60;65.20
81630;DHT22;71039;49.500;10.418;2024-01-25T09:06:04;10.80;65.10
81630;DHT22;71039;49.500;10.418;2024-01-25T09:08:29;10.90;65.00
81630;DHT22;71039;49.500;10.418;2024-01-25T09:10:55;11.10;64.90
81630;DHT22;71039;49.500;10.418;2024-01-25T09:13:20;11.30;65.00
81630;DHT22;71039;49.500;10.418;2024-01-25T09:15:46;11.50;65.00
81630;DHT22;71039;49.500;10.418;2024-01-25T09:18:11;11.70;65.10
81630;DHT22;71039;49.500;10.418;2024-01-25T09:20:37;11.90;64.70
81630;DHT22;71039;49.500;10.418;2024-01-25T09:23:02;12.10;63.80
81630;DHT22;71039;49.500;10.418;2024-01-25T09:25:31;12.20;63.10
81630;DHT22;71039;49.500;10.418;2024-01-25T09:27:56;12.30;63.20
81630;DHT22;71039;49.500;10.418;2024-01-25T09:30:22;12.50;63.50
81630;DHT22;71039;49.500;10.418;2024-01-25T09:32:48;12.60;63.60
81630;DHT22;71039;49.500;10.418;2024-01-25T09:35:13;12.80;63.40
81630;DHT22;71039;49.500;10.418;2024-01-25T09:37:39;13.00;63.30
81630;DHT22;71039;49.500;10.418;2024-01-25T09:40:05;13.10;63.00
81630;DHT22;71039;49.500;10.418;2024-01-25T09:42:32;13.30;62.50
81630;DHT22;71039;49.500;10.418;2024-01-25T09:44:58;13.40;62.10
81630;DHT22;71039;49.500;10.418;2024-01-25T09:47:23;13.50;62.10
81630;DHT22;71039;49.500;10.418;2024-01-25T09:49:49;13.60;61.60
81630;DHT22;71039;49.500;10.418;2024-01-25T09:52:16;13.70;60.70
81630;DHT22;71039;49.500;10.418;2024-01-25T09:54:44;13.80;60.00
81630;DHT22;71039;49.500;10.418;2024-01-25T09:57:15;13.90;59.40
81630;DHT22;71039;49.500;10.418;2024-01-25T09:59:41;13.80;58.70
81630;DHT22;71039;49.500;10.418;2024-01-25T10:02:08;13.70;58.40
81630;DHT22;71039;49.500;10.418;2024-01-25T10:04:34;13.60;58.10
81630;DHT22;71039;49.500;10.418;2024-01-25T10:07:00;13.60;57.70
81630;DHT22;71039;49.500;10.418;2024-01-25T10:09:25;13.50;57.40
81630;DHT22;71039;49.500;10.418;2024-01-25T10:11:51;13.30;57.30
81630;DHT22;71039;49.500;10.418;2024-01-25T10:14:16;13.20;57.40
81630;DHT22;71039;49.500;10.418;2024-01-25T10:16:42;13.10;57.60
81630;DHT22;71039;49.500;10.418;2024-01-25T10:19:07;13.00;57.60
81630;DHT22;71039;49.500;10.418;2024-01-25T10:21:35;12.90;57.70
81630;DHT22;71039;49.500;10.418;2024-01-25T10:24:01;12.80;57.80
81630;DHT22;71039;49.500;10.418;2024-01-25T10:26:27;12.70;57.90
81630;DHT22;71039;49.500;10.418;2024-01-25T10:28:53;12.60;57.80
81630;DHT22;71039;49.500;10.418;2024-01-25T10:31:19;12.50;58.00
81630;DHT22;71039;49.500;10.418;2024-01-25T10:33:45;12.50;58.10
81630;DHT22;71039;49.500;10.418;2024-01-25T10:36:12;12.50;58.10
81630;DHT22;71039;49.500;10.418;2024-01-25T10:38:38;12.50;57.70
81630;DHT22;71039;49.500;10.418;2024-01-25T10:41:05;12.50;58.20
81630;DHT22;71039;49.500;10.418;2024-01-25T10:43:31;12.40;58.30
81630;DHT22;71039;49.500;10.418;2024-01-25T10:45:58;12.30;58.20
81630;DHT22;71039;49.500;10.418;2024-01-25T10:48:27;12.30;58.20
81630;DHT22;71039;49.500;10.418;2024-01-25T10:50:54;12.30;58.10
81630;DHT22;71039;49.500;10.418;2024-01-25T10:53:21;12.30;58.20
81630;DHT22;71039;49.500;10.418;2024-01-25T10:55:47;12.30;58.20
81630;DHT22;71039;49.500;10.418;2024-01-25T10:58:13;12.20;58.20
81630;DHT22;71039;49.500;10.418;2024-01-25T11:00:39;12.20;58.30
81630;DHT22;71039;49.500;10.418;2024-01-25T11:03:06;12.20;58.30
81630;DHT22;71039;49.500;10.418;2024-01-25T11:05:32;12.20;58.50
81630;DHT22;71039;49.500;10.418;2024-01-25T11:07:57;12.20;58.70
81630;DHT22;71039;49.500;10.418;2024-01-25T11:10:27;12.20;58.70
81630;DHT22;71039;49.500;10.418;2024-01-25T11:13:01;12.30;58.70
81630;DHT22;71039;49.500;10.418;2024-01-25T11:15:32;12.30;58.40
81630;DHT22;71039;49.500;10.418;2024-01-25T11:17:58;12.30;58.50
81630;DHT22;71039;49.500;10.418;2024-01-25T11:20:25;12.40;58.40
81630;DHT22;71039;49.500;10.418;2024-01-25T11:23:04;12.40;58.20
81630;DHT22;71039;49.500;10.418;2024-01-25T11:25:32;12.50;57.80
81630;DHT22;71039;49.500;10.418;2024-01-25T11:28:01;12.50;58.20
81630;DHT22;71039;49.500;10.418;2024-01-25T11:30:29;12.50;58.20
81630;DHT22;71039;49.500;10.418;2024-01-25T11:32:55;12.50;58.00
81630;DHT22;71039;49.500;10.418;2024-01-25T11:35:21;12.50;57.90
81630;DHT22;71039;49.500;10.418;2024-01-25T11:37:48;12.50;57.70
81630;DHT22;71039;49.500;10.418;2024-01-25T11:40:15;12.50;57.70
81630;DHT22;71039;49.500;10.418;2024-01-25T11:42:44;12.60;57.60
81630;DHT22;71039;49.500;10.418;2024-01-25T11:45:11;12.70;57.50
81630;DHT22;71039;49.500;10.418;2024-01-25T11:47:38;12.70;57.50
81630;DHT22;71039;49.500;10.418;2024-01-25T11:50:05;12.70;57.50
81630;DHT22;71039;49.500;10.418;2024-01-25T11:52:31;12.70;57.30
81630;DHT22;71039;49.500;10.418;2024-01-25T11:54:57;12.70;57.20
81630;DHT22;71039;49.500;10.418;2024-01-25T11:57:22;12.70;57.10
81630;DHT22;71039;49.500;10.418;2024-01-25T11:59:48;12.70;57.00
81630;DHT22;71039;49.500;10.418;2024-01-25T12:02:14;12.70;56.80
81630;DHT22;71039;49.500;10.418;2024-01-25T12:04:40;12.80;56.80
81630;DHT22;71039;49.500;10.418;2024-01-25T12:07:05;12.70;56.80
81630;DHT22;71039;49.500;10.418;2024-01-25T12:09:32;12.80;56.70
81630;DHT22;71039;49.500;10.418;2024-01-25T12:12:00;12.80;56.70
81630;DHT22;71039;49.500;10.418;2024-01-25T12:14:27;12.80;56.70
81630;DHT22;71039;49.500;10.418;2024-01-25T12:16:55;12.80;56.50
81630;DHT22;71039;49.500;10.418;2024-01-25T12:19:20;12.80;56.40
81630;DHT22;71039;49.500;10.418;2024-01-25T12:21:47;12.80;56.30
81630;DHT22;71039;49.500;10.418;2024-01-25T12:24:12;12.80;56.20
81630;DHT22;71039;49.500;10.418;2024-01-25T12:26:38;12.80;56.20
81630;DHT22;71039;49.500;10.418;2024-01-25T12:29:04;12.80;56.20
81630;DHT22;71039;49.500;10.418;2024-01-25T12:31:29;12.80;56.00
81630;DHT22;71039;49.500;10.418;2024-01-25T12:33:55;12.80;55.90
81630;DHT22;71039;49.500;10.418;2024-01-25T12:36:21;12.80;55.80
81630;DHT22;71039;49.500;10.418;2024-01-25T12:38:46;12.70;55.70
81630;DHT22;71039;49.500;10.418;2024-01-25T12:41:12;12.70;55.70
81630;DHT22;71039;49.500;10.418;2024-01-25T12:43:37;12.70;55.60
81630;DHT22;71039;49.500;10.418;2024-01-25T12:46:03;12.70;55.60
81630;DHT22;71039;49.500;10.418;2024-01-25T12:48:28;12.70;55.60
81630;DHT22;71039;49.500;10.418;2024-01-25T12:50:54;12.60;55.60
81630;DHT22;71039;49.500;10.418;2024-01-25T12:53:19;12.50;55.70
81630;DHT22;71039;49.500;10.418;2024-01-25T12:55:45;12.50;55.70
81630;DHT22;71039;49.500;10.418;2024-01-25T12:58:10;12.50;55.70
81630;DHT22;71039;49.500;10.418;2024-01-25T13:00:36;12.50;55.60
81630;DHT22;71039;49.500;10.418;2024-01-25T13:03:02;12.50;55.70
81630;DHT22;71039;49.500;10.418;2024-01-25T13:05:27;12.50;55.70
81630;DHT22;71039;49.500;10.418;2024-01-25T13:07:53;12.50;55.70
81630;DHT22;71039;49.500;10.418;2024-01-25T13:10:18;12.50;55.50
81630;DHT22;71039;49.500;10.418;2024-01-25T13:12:44;12.50;55.60
81630;DHT22;71039;49.500;10.418;2024-01-25T13:15:10;12.50;55.60
81630;DHT22;71039;49.500;10.418;2024-01-25T13:17:35;12.50;55.70
81630;DHT22;71039;49.500;10.418;2024-01-25T13:20:01;12.40;55.60
81630;DHT22;71039;49.500;10.418;2024-01-25T13:22:26;12.40;55.70
81630;DHT22;71039;49.500;10.418;2024-01-25T13:24:52;12.40;55.80
81630;DHT22;71039;49.500;10.418;2024-01-25T13:27:18;12.40;55.80
81630;DHT22;71039;49.500;10.418;2024-01-25T13:29:43;12.40;55.80
81630;DHT22;71039;49.500;10.418;2024-01-25T13:32:09;12.40;55.80
81630;DHT22;71039;49.500;10.418;2024-01-25T13:34:34;12.40;55.80
81630;DHT22;71039;49.500;10.418;2024-01-25T13:37:00;12.40;55.70
81630;DHT22;71039;49.500;10.418;2024-01-25T13:39:25;12.40;55.70
81630;DHT22;71039;49.500;10.418;2024-01-25T13:41:51;12.40;55.70
81630;DHT22;71039;49.500;10.418;2024-01-25T13:44:17;12.40;55.60
81630;DHT22;71039;49.500;10.418;2024-01-25T13:46:42;12.40;55.50
81630;DHT22;71039;49.500;10.418;2024-01-25T13:49:08;12.40;55.50
81630;DHT22;71039;49.500;10.418;2024-01-25T13:51:33;12.40;55.40
81630;DHT22;71039;49.500;10.418;2024-01-25T13:53:59;12.50;55.40
81630;DHT22;71039;49.500;10.418;2024-01-25T13:56:24;12.40;55.40
81630;DHT22;71039;49.500;10.418;2024-01-25T13:58:51;12.40;55.30
81630;DHT22;71039;49.500;10.418;2024-01-25T14:01:17;12.40;55.40
81630;DHT22;71039;49.500;10.418;2024-01-25T14:03:42;12.40;55.30
81630;DHT22;71039;49.500;10.418;2024-01-25T14:06:08;12.40;55.30
81630;DHT22;71039;49.500;10.418;2024-01-25T14:08:33;12.40;55.20
81630;DHT22;71039;49.500;10.418;2024-01-25T14:10:59;12.40;55.20
81630;DHT22;71039;49.500;10.418;2024-01-25T14:13:24;12.40;55.10
81630;DHT22;71039;49.500;10.418;2024-01-25T14:15:50;12.40;55.10
81630;DHT22;71039;49.500;10.418;2024-01-25T14:18:15;12.30;55.00
81630;DHT22;71039;49.500;10.418;2024-01-25T14:20:41;12.30;55.00
81630;DHT22;71039;49.500;10.418;2024-01-25T14:23:06;12.30;55.00
81630;DHT22;71039;49.500;10.418;2024-01-25T14:25:32;12.30;54.90
81630;DHT22;71039;49.500;10.418;2024-01-25T14:27:57;12.30;54.90
81630;DHT22;71039;49.500;10.418;2024-01-25T14:30:23;12.20;54.90
81630;DHT22;71039;49.500;10.418;2024-01-25T14:32:48;12.20;54.90
81630;DHT22;71039;49.500;10.418;2024-01-25T14:35:14;12.20;54.90
81630;DHT22;71039;49.500;10.418;2024-01-25T14:37:39;12.10;54.90
81630;DHT22;71039;49.500;10.418;2024-01-25T14:40:05;12.10;55.00
81630;DHT22;71039;49.500;10.418;2024-01-25T14:42:31;12.10;55.00
81630;DHT22;71039;49.500;10.418;2024-01-25T14:44:57;12.10;54.90
81630;DHT22;71039;49.500;10.418;2024-01-25T14:47:22;12.00;55.00
81630;DHT22;71039;49.500;10.418;2024-01-25T14:49:48;12.00;55.00
81630;DHT22;71039;49.500;10.418;2024-01-25T14:52:14;12.00;55.00
81630;DHT22;71039;49.500;10.418;2024-01-25T14:54:40;12.00;54.90
81630;DHT22;71039;49.500;10.418;2024-01-25T14:57:06;11.90;54.90
81630;DHT22;71039;49.500;10.418;2024-01-25T14:59:31;11.90;54.90
81630;DHT22;71039;49.500;10.418;2024-01-25T15:01:57;11.90;55.00
81630;DHT22;71039;49.500;10.418;2024-01-25T15:04:22;11.90;55.00
81630;DHT22;71039;49.500;10.418;2024-01-25T15:06:48;11.80;55.00
81630;DHT22;71039;49.500;10.418;2024-01-25T15:09:13;11.70;55.00
81630;DHT22;71039;49.500;10.418;2024-01-25T15:11:39;11.70;55.00
81630;DHT22;71039;49.500;10.418;2024-01-25T15:14:04;11.70;55.10
81630;DHT22;71039;49.500;10.418;2024-01-25T15:16:30;11.70;55.10